Time;durP1;ratioP1;P1;durP2;ratioP2;P2;SDS_P1;SDS_P2;PMS_P1;PMS_P2;Temp;Humidity;BMP_temperature;BMP_pressure;BME280_temperature;BME280_humidity;BME280_pressure;Samples;Min_cycle;Max_cycle;Signal;HPM_P1;HPM_P2
2022/02/13 00:01:22;;;;;;;8.77;5.32;;;3.90;99.90;;;;;;5029749;28;20416;-68
2022/02/13 00:04:26;;;;;;;8.13;4.65;;;3.80;99.90;;;;;;5030104;28;20405;-69
2022/02/13 00:07:30;;;;;;;8.38;5.20;;;3.70;99.90;;;;;;5029818;28;20034;-68
2022/02/13 00:10:53;;;;;;;12.40;4.78;;;3.70;99.90;;;;;;5030122;28;20036;-68
2022/02/13 00:13:57;;;;;;;11.82;5.07;;;3.70;99.90;;;;;;5030243;28;20052;-68
2022/02/13 00:17:01;;;;;;;8.48;4.88;;;3.70;99.90;;;;;;5033948;28;20053;-68
2022/02/13 00:20:05;;;;;;;10.30;5.00;;;3.50;99.90;;;;;;5033431;28;20495;-69
2022/02/13 00:26:31;;;;;;;10.93;5.35;;;3.30;99.90;;;;;;5033741;28;20580;-68
2022/02/13 00:29:35;;;;;;;12.93;4.78;;;3.30;99.90;;;;;;5033144;28;20052;-68
2022/02/13 00:32:40;;;;;;;9.98;5.03;;;3.20;99.90;;;;;;5033609;28;20223;-68
2022/02/13 00:36:04;;;;;;;10.02;5.38;;;3.20;99.90;;;;;;5033478;28;20033;-68
2022/02/13 00:39:08;;;;;;;8.73;5.05;;;3.20;99.90;;;;;;5033271;28;20060;-68
2022/02/13 00:42:14;;;;;;;8.68;4.38;;;3.20;99.90;;;;;;5033205;28;20048;-69
2022/02/13 00:45:18;;;;;;;8.50;4.47;;;3.20;99.90;;;;;;5033520;28;20048;-68
2022/02/13 00:48:22;;;;;;;15.45;5.78;;;3.30;99.90;;;;;;5033130;28;20041;-68
2022/02/13 00:51:26;;;;;;;7.85;4.38;;;3.30;99.90;;;;;;5033228;28;20076;-69
2022/02/13 00:54:34;;;;;;;9.93;5.03;;;3.30;99.90;;;;;;5032405;28;20046;-68
2022/02/13 00:57:38;;;;;;;7.05;4.20;;;3.20;99.90;;;;;;5033204;28;20045;-68
2022/02/13 01:01:01;;;;;;;9.50;3.63;;;3.20;99.90;;;;;;5033188;28;20045;-68
2022/02/13 01:04:05;;;;;;;8.75;3.72;;;3.00;99.90;;;;;;5032857;28;20461;-68
2022/02/13 01:07:10;;;;;;;8.45;3.80;;;3.00;99.90;;;;;;5033105;28;20491;-68
2022/02/13 01:10:14;;;;;;;7.65;3.33;;;3.00;99.90;;;;;;5032261;28;20033;-69
2022/02/13 01:13:19;;;;;;;8.75;3.63;;;3.00;99.90;;;;;;5032887;28;20038;-68
2022/02/13 01:16:24;;;;;;;6.80;3.22;;;3.00;99.90;;;;;;5033000;28;20052;-68
2022/02/13 01:19:29;;;;;;;5.88;3.17;;;3.10;99.90;;;;;;5032190;28;20049;-68
2022/02/13 01:22:33;;;;;;;5.93;2.88;;;3.00;99.90;;;;;;5032570;28;20041;-68
2022/02/13 01:25:37;;;;;;;7.45;3.83;;;3.00;99.90;;;;;;5032687;28;20037;-68
2022/02/13 01:28:42;;;;;;;10.38;4.65;;;3.00;99.90;;;;;;5031705;28;20037;-68
2022/02/13 01:31:45;;;;;;;9.32;5.05;;;3.00;99.90;;;;;;5031852;28;20052;-68
2022/02/13 01:34:50;;;;;;;8.07;5.13;;;3.00;99.90;;;;;;5032697;28;20052;-68
2022/02/13 01:38:13;;;;;;;13.93;5.28;;;3.00;99.90;;;;;;5032669;28;20048;-68
2022/02/13 01:41:17;;;;;;;13.50;4.88;;;2.90;99.90;;;;;;5032732;28;20040;-68
2022/02/13 01:44:23;;;;;;;10.70;3.50;;;2.80;99.90;;;;;;5032433;28;20060;-68
2022/02/13 01:47:46;;;;;;;6.82;3.35;;;2.80;99.90;;;;;;5032394;28;20048;-68
2022/02/13 01:50:52;;;;;;;9.15;2.67;;;2.80;99.90;;;;;;5032600;28;20029;-68
2022/02/13 01:53:56;;;;;;;4.43;2.60;;;2.80;99.90;;;;;;5031972;28;20037;-68
2022/02/13 01:57:02;;;;;;;5.30;2.45;;;2.90;99.90;;;;;;5031216;28;20025;-68
2022/02/13 02:00:07;;;;;;;6.47;2.63;;;3.00;99.90;;;;;;5031891;28;20041;-68
2022/02/13 02:03:16;;;;;;;5.65;2.97;;;3.00;99.90;;;;;;5031937;28;20056;-68
2022/02/13 02:09:45;;;;;;;7.80;4.25;;;2.80;99.90;;;;;;5031685;28;20033;-68
2022/02/13 02:12:50;;;;;;;9.65;5.57;;;2.70;99.90;;;;;;5031979;28;20045;-68
2022/02/13 02:15:53;;;;;;;7.28;5.25;;;2.60;99.90;;;;;;5032210;28;20058;-68
2022/02/13 02:18:58;;;;;;;6.53;3.80;;;2.50;99.90;;;;;;5031484;28;20049;-68
2022/02/13 02:22:05;;;;;;;7.22;4.20;;;2.40;99.90;;;;;;5031661;28;20048;-68
2022/02/13 02:25:09;;;;;;;12.20;6.38;;;2.00;99.90;;;;;;5031793;28;20042;-68
2022/02/13 02:28:13;;;;;;;12.82;5.10;;;1.90;99.90;;;;;;5031089;28;20049;-68
2022/02/13 02:31:17;;;;;;;10.30;5.03;;;1.90;99.90;;;;;;5031641;28;20044;-68
2022/02/13 02:34:21;;;;;;;10.18;5.80;;;1.90;99.90;;;;;;5031034;28;20044;-68
2022/02/13 02:40:48;;;;;;;8.05;5.30;;;1.80;99.90;;;;;;5031305;28;20396;-68
2022/02/13 02:43:52;;;;;;;7.22;4.88;;;1.70;99.90;;;;;;5030703;28;20351;-68
2022/02/13 02:46:56;;;;;;;7.22;4.03;;;1.70;99.90;;;;;;5031404;28;20500;-68
2022/02/13 02:50:00;;;;;;;15.65;5.38;;;1.60;99.90;;;;;;5030599;28;20051;-68
2022/02/13 02:53:05;;;;;;;8.40;4.55;;;1.60;99.90;;;;;;5030952;28;20053;-68
2022/02/13 02:56:10;;;;;;;7.22;3.60;;;1.60;99.90;;;;;;5030824;28;20042;-68
2022/02/13 02:59:13;;;;;;;11.07;3.47;;;1.70;99.90;;;;;;5030528;28;20048;-68
2022/02/13 03:02:19;;;;;;;5.25;3.67;;;1.70;99.90;;;;;;5030658;28;20044;-68
2022/02/13 03:05:22;;;;;;;6.72;3.58;;;1.70;99.90;;;;;;5030540;28;20131;-68
2022/02/13 03:08:26;;;;;;;10.23;3.72;;;1.80;99.90;;;;;;5030486;28;20029;-68
2022/02/13 03:11:49;;;;;;;5.85;2.92;;;1.90;99.90;;;;;;5030523;28;20053;-68
2022/02/13 03:14:54;;;;;;;5.95;2.70;;;1.90;99.90;;;;;;5030872;28;20384;-68
2022/02/13 03:17:57;;;;;;;7.72;3.75;;;2.00;99.90;;;;;;5030841;28;20041;-68
2022/02/13 03:21:01;;;;;;;3.95;2.80;;;2.10;99.90;;;;;;5030435;28;20053;-68
2022/02/13 03:24:07;;;;;;;5.53;2.92;;;2.00;99.90;;;;;;5029964;28;20500;-68
2022/02/13 03:27:48;;;;;;;7.55;2.63;;;2.00;99.90;;;;;;5030330;28;20033;-68
2022/02/13 03:34:34;;;;;;;8.77;2.80;;;2.10;99.90;;;;;;5030347;28;20054;-69
2022/02/13 03:37:42;;;;;;;4.60;2.70;;;2.00;99.90;;;;;;5030541;28;20050;-68
2022/02/13 03:40:47;;;;;;;5.60;2.75;;;2.00;99.90;;;;;;5030100;28;20507;-68
2022/02/13 03:43:51;;;;;;;7.07;2.50;;;1.90;99.90;;;;;;5030250;28;20040;-68
2022/02/13 03:46:56;;;;;;;10.02;3.28;;;1.90;99.90;;;;;;5029192;28;20037;-68
2022/02/13 03:50:00;;;;;;;7.85;2.67;;;1.90;99.90;;;;;;5029401;28;20048;-68
2022/02/13 03:53:05;;;;;;;6.05;2.20;;;1.90;99.90;;;;;;5030051;28;20052;-67
2022/02/13 03:56:09;;;;;;;7.32;2.95;;;1.90;99.90;;;;;;5030260;28;20054;-68
2022/02/13 03:59:13;;;;;;;5.00;2.22;;;1.90;99.90;;;;;;5029837;28;20511;-68
2022/02/13 04:02:18;;;;;;;9.13;2.97;;;2.00;99.90;;;;;;5030139;28;20046;-68
2022/02/13 04:05:23;;;;;;;6.10;2.30;;;2.00;99.90;;;;;;5030248;28;20045;-68
2022/02/13 04:08:46;;;;;;;3.83;2.30;;;1.90;99.90;;;;;;5029581;28;20049;-68
2022/02/13 04:11:50;;;;;;;4.35;2.35;;;2.00;99.90;;;;;;5029814;28;20388;-68
2022/02/13 04:15:00;;;;;;;5.57;2.60;;;2.00;99.90;;;;;;5029529;28;20041;-68
2022/02/13 04:18:14;;;;;;;8.05;2.70;;;2.10;99.90;;;;;;5029388;28;20037;-68
2022/02/13 04:21:18;;;;;;;4.75;2.40;;;2.10;99.90;;;;;;5029564;28;20037;-68
2022/02/13 04:24:22;;;;;;;5.35;2.75;;;2.10;99.90;;;;;;5029518;28;20400;-67
2022/02/13 04:27:26;;;;;;;5.88;2.65;;;2.10;99.90;;;;;;5029841;28;20056;-68
2022/02/13 04:30:31;;;;;;;4.10;2.42;;;2.20;99.90;;;;;;5029581;28;20049;-68
2022/02/13 04:33:35;;;;;;;6.82;2.58;;;2.20;99.90;;;;;;5017533;28;20049;-68
2022/02/13 04:36:39;;;;;;;5.30;2.40;;;2.20;99.90;;;;;;5029541;28;20045;-68
2022/02/13 04:39:43;;;;;;;4.78;2.55;;;2.20;99.90;;;;;;5028573;28;20396;-68
2022/02/13 04:42:47;;;;;;;11.45;3.17;;;2.20;99.90;;;;;;5029623;28;20048;-68
2022/02/13 04:45:51;;;;;;;5.15;2.30;;;2.20;99.90;;;;;;5029421;28;20392;-68
2022/02/13 04:48:56;;;;;;;5.65;2.25;;;2.20;99.90;;;;;;5029404;28;20046;-68
2022/02/13 04:55:41;;;;;;;4.82;2.20;;;2.10;99.90;;;;;;5029104;28;20040;-68
2022/02/13 04:58:45;;;;;;;8.25;3.15;;;2.10;99.90;;;;;;5028962;28;20045;-68
2022/02/13 05:01:49;;;;;;;5.65;2.72;;;2.10;99.90;;;;;;5029747;28;20052;-67
2022/02/13 05:04:53;;;;;;;5.50;2.97;;;2.10;99.90;;;;;;5033173;28;20045;-68
2022/02/13 05:07:57;;;;;;;7.07;2.40;;;2.10;99.90;;;;;;5033389;28;20041;-68
2022/02/13 05:11:01;;;;;;;3.97;2.40;;;2.10;99.90;;;;;;5033224;28;20040;-68
2022/02/13 05:14:25;;;;;;;5.38;2.40;;;2.20;99.90;;;;;;5032541;28;20038;-68
2022/02/13 05:17:29;;;;;;;3.78;2.60;;;2.10;99.90;;;;;;5033000;28;20500;-68
2022/02/13 05:20:32;;;;;;;5.80;3.03;;;2.10;99.90;;;;;;5032757;28;20239;-68
2022/02/13 05:23:37;;;;;;;9.13;2.90;;;1.80;99.90;;;;;;5032696;28;20051;-68
2022/02/13 05:26:41;;;;;;;5.00;3.25;;;1.60;99.90;;;;;;5031947;28;20037;-68
2022/02/13 05:29:45;;;;;;;5.93;3.40;;;1.50;99.90;;;;;;5032244;28;20056;-68
2022/02/13 05:32:49;;;;;;;5.70;3.55;;;1.40;99.90;;;;;;5033086;28;20440;-68
2022/02/13 05:35:53;;;;;;;6.57;3.60;;;1.40;99.90;;;;;;5032648;28;20056;-68
2022/02/13 05:38:57;;;;;;;9.40;3.40;;;1.40;99.90;;;;;;5032334;28;20042;-68
2022/02/13 05:42:01;;;;;;;7.60;4.55;;;1.40;99.90;;;;;;5032525;28;20045;-68
2022/02/13 05:45:05;;;;;;;5.65;3.50;;;1.50;99.90;;;;;;5032728;28;20113;-68
2022/02/13 05:51:36;;;;;;;6.38;2.72;;;1.70;99.90;;;;;;5032720;28;20180;-67
2022/02/13 05:54:59;;;;;;;3.90;2.45;;;1.70;99.90;;;;;;5032313;28;20181;-68
2022/02/13 05:58:03;;;;;;;5.65;2.63;;;1.70;99.90;;;;;;5031833;28;20040;-68
2022/02/13 06:01:07;;;;;;;8.07;5.20;;;1.80;99.90;;;;;;5032000;28;20404;-68
2022/02/13 06:04:30;;;;;;;9.20;6.10;;;1.80;99.90;;;;;;5031843;28;20336;-68
2022/02/13 06:07:39;;;;;;;9.93;5.13;;;1.80;99.90;;;;;;5031813;28;20037;-68
2022/02/13 06:10:43;;;;;;;9.25;5.10;;;1.70;99.90;;;;;;5031549;28;20045;-68
2022/02/13 06:13:47;;;;;;;10.60;5.63;;;1.70;99.90;;;;;;5031357;28;20033;-68
2022/02/13 06:16:51;;;;;;;5.72;3.60;;;1.60;99.90;;;;;;5031791;28;20052;-68
2022/02/13 06:19:55;;;;;;;10.85;6.47;;;1.60;99.90;;;;;;5031150;28;20056;-68
2022/02/13 06:23:18;;;;;;;7.57;3.58;;;1.60;99.90;;;;;;5031331;28;20036;-68
2022/02/13 06:26:23;;;;;;;7.00;2.78;;;1.50;99.90;;;;;;5030877;28;20044;-68
2022/02/13 06:29:27;;;;;;;5.97;3.70;;;1.60;99.90;;;;;;5031207;28;20049;-68
2022/02/13 06:32:31;;;;;;;4.43;2.60;;;1.60;99.90;;;;;;5031717;28;20033;-68
2022/02/13 06:35:36;;;;;;;5.82;3.00;;;1.70;99.90;;;;;;5031449;28;20052;-68
2022/02/13 06:38:59;;;;;;;7.97;2.90;;;1.90;99.90;;;;;;5030811;28;20037;-68
2022/02/13 06:42:03;;;;;;;9.90;4.00;;;2.10;99.90;;;;;;5030830;28;20048;-68
2022/02/13 06:45:08;;;;;;;5.68;2.70;;;2.30;99.90;;;;;;5031507;28;20042;-68
2022/02/13 06:48:12;;;;;;;5.65;3.10;;;2.50;99.90;;;;;;5030699;28;20516;-68
2022/02/13 06:51:16;;;;;;;10.57;3.03;;;2.70;99.90;;;;;;5031536;28;20052;-68
2022/02/13 06:54:41;;;;;;;4.82;3.08;;;3.20;99.90;;;;;;5031224;28;20405;-69
2022/02/13 07:01:14;;;;;;;5.22;3.40;;;4.40;99.90;;;;;;5031231;28;20381;-68
2022/02/13 07:04:18;;;;;;;5.68;3.22;;;4.60;99.90;;;;;;5031241;28;20041;-68
2022/02/13 07:07:22;;;;;;;5.22;2.47;;;5.10;99.90;;;;;;5030916;28;20041;-69
2022/02/13 07:10:26;;;;;;;6.38;2.55;;;5.40;99.90;;;;;;5030932;28;20053;-68
2022/02/13 07:13:31;;;;;;;8.15;2.97;;;6.50;99.90;;;;;;5030958;28;20499;-69
2022/02/13 07:16:35;;;;;;;7.60;3.42;;;6.50;99.90;;;;;;5031043;28;20041;-69
2022/02/13 07:19:39;;;;;;;9.25;2.90;;;6.30;99.90;;;;;;5030396;28;20068;-68
2022/02/13 07:22:44;;;;;;;5.55;2.78;;;6.20;99.90;;;;;;5030735;28;20048;-68
2022/02/13 07:25:50;;;;;;;6.15;2.55;;;6.00;99.90;;;;;;5029910;28;20040;-69
2022/02/13 07:29:00;;;;;;;7.93;2.70;;;6.00;99.90;;;;;;5029911;28;20049;-69
2022/02/13 07:32:05;;;;;;;4.30;2.20;;;6.20;99.90;;;;;;5030008;28;20044;-68
2022/02/13 07:35:09;;;;;;;6.22;3.83;;;6.40;99.90;;;;;;5030586;28;20126;-69
2022/02/13 07:38:13;;;;;;;5.47;3.55;;;6.50;99.90;;;;;;5028784;28;20038;-69
2022/02/13 07:41:17;;;;;;;6.15;2.80;;;6.60;99.90;;;;;;5030300;28;20074;-68
2022/02/13 07:44:21;;;;;;;6.38;2.60;;;6.50;99.90;;;;;;5030139;28;20048;-69
2022/02/13 07:47:25;;;;;;;12.35;4.90;;;6.60;99.90;;;;;;5029223;28;20045;-69
2022/02/13 07:50:29;;;;;;;6.15;2.50;;;6.30;99.90;;;;;;5030081;28;20037;-69
2022/02/13 07:53:52;;;;;;;6.45;2.80;;;5.90;99.90;;;;;;5030548;28;20541;-69
2022/02/13 07:56:56;;;;;;;9.40;2.80;;;5.40;99.90;;;;;;5030173;28;20037;-69
2022/02/13 08:00:00;;;;;;;8.23;2.90;;;5.50;99.90;;;;;;5029892;28;20041;-69
2022/02/13 08:03:05;;;;;;;5.57;2.22;;;6.60;99.90;;;;;;5030105;28;20511;-69
2022/02/13 08:06:27;;;;;;;5.88;2.22;;;8.30;99.90;;;;;;5030056;28;20040;-69
2022/02/13 08:09:31;;;;;;;4.68;2.40;;;9.70;99.90;;;;;;5029481;28;20392;-69
2022/02/13 08:12:36;;;;;;;3.92;2.30;;;12.30;99.90;;;;;;5030180;28;20840;-69
2022/02/13 08:15:41;;;;;;;5.38;2.63;;;14.90;97.50;;;;;;5030347;28;20052;-69
2022/02/13 08:18:46;;;;;;;4.25;2.33;;;17.10;93.30;;;;;;5029725;28;20040;-69
2022/02/13 08:22:09;;;;;;;5.10;2.72;;;18.60;89.20;;;;;;5030788;28;20613;-69
2022/02/13 08:25:13;;;;;;;6.57;2.78;;;20.00;84.90;;;;;;5029230;28;20408;-67
2022/02/13 08:28:17;;;;;;;5.35;2.70;;;19.80;75.20;;;;;;5028939;28;20052;-67
2022/02/13 08:31:21;;;;;;;5.57;2.53;;;19.70;75.00;;;;;;5028762;28;20047;-70
2022/02/13 08:34:45;;;;;;;5.15;2.65;;;20.20;74.70;;;;;;5029401;28;20044;-69
2022/02/13 08:37:50;;;;;;;6.57;2.97;;;19.80;74.50;;;;;;5032961;28;20044;-67
2022/02/13 08:40:55;;;;;;;9.45;3.78;;;16.90;75.50;;;;;;5033556;28;20040;-70
2022/02/13 08:47:21;;;;;;;7.60;3.53;;;12.80;86.50;;;;;;5033563;28;20033;-69
2022/02/13 08:50:26;;;;;;;7.88;3.53;;;11.60;90.20;;;;;;5033369;28;20048;-69
2022/02/13 08:53:30;;;;;;;7.82;3.50;;;11.80;90.30;;;;;;5033593;28;20048;-69
2022/02/13 08:56:54;;;;;;;9.13;3.40;;;11.90;90.80;;;;;;5033320;28;20491;-69
2022/02/13 09:00:19;;;;;;;6.95;3.40;;;13.00;90.80;;;;;;5033085;28;20048;-69
2022/02/13 09:03:22;;;;;;;6.70;3.10;;;15.90;87.20;;;;;;5032988;28;20048;-70
2022/02/13 09:06:26;;;;;;;9.27;3.78;;;17.70;82.50;;;;;;5032975;28;20048;-67
2022/02/13 09:09:34;;;;;;;5.82;3.25;;;18.30;79.00;;;;;;5031762;28;20060;-69
2022/02/13 09:12:39;;;;;;;6.70;3.75;;;18.60;78.20;;;;;;5033047;28;20057;-69
2022/02/13 09:15:43;;;;;;;6.88;4.38;;;14.10;81.80;;;;;;5032122;28;20056;-70
2022/02/13 09:19:07;;;;;;;10.73;6.15;;;13.80;82.80;;;;;;5032311;28;20048;-69
2022/02/13 09:22:11;;;;;;;12.68;7.50;;;13.00;89.10;;;;;;5033185;28;20060;-69
2022/02/13 09:25:33;;;;;;;13.07;8.05;;;12.00;91.10;;;;;;5032845;28;20052;-69
2022/02/13 09:28:38;;;;;;;16.42;9.57;;;10.70;92.90;;;;;;5031786;28;20064;-69
2022/02/13 09:31:42;;;;;;;18.15;10.95;;;10.50;94.00;;;;;;5032592;28;20053;-69
2022/02/13 09:34:46;;;;;;;12.93;8.55;;;10.40;95.10;;;;;;5032459;28;20057;-69
2022/02/13 09:37:50;;;;;;;12.75;7.30;;;11.90;94.20;;;;;;5032490;28;20392;-69
2022/02/13 09:44:21;;;;;;;9.85;6.10;;;16.40;87.60;;;;;;5032389;28;20049;-69
2022/02/13 09:47:26;;;;;;;10.48;4.85;;;18.80;79.40;;;;;;5032092;28;20049;-67
2022/02/13 09:50:49;;;;;;;10.23;5.75;;;21.10;75.30;;;;;;5032552;28;20064;-69
2022/02/13 09:53:53;;;;;;;7.82;4.60;;;22.50;70.10;;;;;;5032205;28;20056;-70
2022/02/13 10:00:23;;;;;;;10.35;6.45;;;19.30;69.10;;;;;;5031666;28;20049;-70
2022/02/13 10:03:29;;;;;;;6.97;5.20;;;20.30;67.50;;;;;;5031842;28;20040;-70
2022/02/13 10:06:37;;;;;;;8.52;5.47;;;21.30;67.30;;;;;;5032006;28;20759;-69
2022/02/13 10:10:03;;;;;;;5.82;4.10;;;20.20;67.10;;;;;;5031496;28;20047;-70
2022/02/13 10:13:25;;;;;;;5.70;3.45;;;20.60;66.40;;;;;;5032295;28;20067;-67
2022/02/13 10:16:36;;;;;;;7.38;4.30;;;23.90;64.80;;;;;;5031956;28;20400;-67
2022/02/13 10:19:52;;;;;;;6.07;4.00;;;25.20;61.90;;;;;;5030740;28;20056;-67
2022/02/13 10:23:03;;;;;;;7.38;3.30;;;28.50;59.20;;;;;;5031789;28;20052;-68
2022/02/13 10:26:26;;;;;;;;;;;29.30;56.10;;;;;;5032001;28;20048;-68
2022/02/13 10:29:33;;;;;;;4.75;2.80;;;28.90;52.60;;;;;;5030930;28;19913;-68
2022/02/13 10:32:56;;;;;;;5.88;2.70;;;25.30;53.70;;;;;;5031499;28;20111;-68
2022/02/13 10:36:23;;;;;;;2.92;2.38;;;26.20;55.80;;;;;;5031280;28;20044;-69
2022/02/13 10:39:28;;;;;;;4.60;1.95;;;28.90;54.80;;;;;;5030727;28;20048;-69
2022/02/13 10:42:32;;;;;;;3.22;2.15;;;28.80;53.40;;;;;;5031474;28;20040;-68
2022/02/13 10:45:40;;;;;;;3.65;2.10;;;27.70;50.50;;;;;;5031147;28;20251;-68
2022/02/13 10:48:45;;;;;;;5.13;2.28;;;27.40;52.30;;;;;;5030876;28;20036;-69
2022/02/13 10:51:51;;;;;;;2.83;1.80;;;29.00;51.40;;;;;;5031192;28;20029;-68
2022/02/13 10:54:55;;;;;;;3.08;1.98;;;30.10;50.40;;;;;;5030942;28;20044;-68
2022/02/13 10:58:00;;;;;;;4.10;1.60;;;30.90;50.10;;;;;;5030981;28;20040;-69
2022/02/13 11:01:06;;;;;;;3.30;1.63;;;31.70;48.20;;;;;;5031113;28;20045;-68
2022/02/13 11:04:10;;;;;;;3.58;2.05;;;30.40;47.90;;;;;;5031121;28;20053;-69
2022/02/13 11:07:55;;;;;;;2.90;1.55;;;31.80;48.70;;;;;;5031872;28;20415;-69
2022/02/13 11:11:01;;;;;;;3.67;2.03;;;32.50;47.80;;;;;;5031671;28;20055;-68
2022/02/13 11:14:47;;;;;;;5.85;1.95;;;30.90;47.20;;;;;;5030794;28;20068;-69
2022/02/13 11:21:17;;;;;;;5.63;2.17;;;29.40;48.10;;;;;;5030843;28;20053;-68
2022/02/13 11:24:24;;;;;;;4.82;1.70;;;31.20;48.00;;;;;;5032362;28;20045;-69
2022/02/13 11:27:53;;;;;;;5.00;1.70;;;31.30;46.60;;;;;;5030352;28;20389;-69
2022/02/13 11:30:58;;;;;;;3.35;1.95;;;32.00;46.70;;;;;;5030411;28;20044;-69
2022/02/13 11:34:03;;;;;;;7.13;2.08;;;29.50;46.40;;;;;;5030444;28;20052;-69
2022/02/13 11:37:10;;;;;;;2.50;1.75;;;28.70;49.00;;;;;;5031100;28;20052;-68
2022/02/13 11:40:38;;;;;;;3.47;2.03;;;29.10;48.90;;;;;;5030917;28;20044;-69
2022/02/13 11:43:49;;;;;;;6.38;2.58;;;30.40;47.70;;;;;;5030229;28;20060;-68
2022/02/13 11:47:32;;;;;;;4.65;2.90;;;24.80;50.00;;;;;;5030213;28;20044;-69
2022/02/13 11:50:45;;;;;;;4.70;3.17;;;24.80;49.20;;;;;;5030128;28;20660;-68
2022/02/13 11:53:51;;;;;;;9.80;3.55;;;24.80;51.30;;;;;;5030964;28;20036;-68
2022/02/13 11:57:06;;;;;;;5.95;3.30;;;26.20;51.40;;;;;;5029894;28;20507;-68
2022/02/13 12:00:12;;;;;;;5.15;3.45;;;26.00;50.80;;;;;;5031166;28;20067;-68
2022/02/13 12:06:53;;;;;;;5.45;2.85;;;29.00;49.40;;;;;;5030233;28;20476;-68
2022/02/13 12:09:57;;;;;;;15.70;9.93;;;23.40;52.80;;;;;;5029611;28;20036;-70
2022/02/13 12:13:26;;;;;;;12.20;6.55;;;21.10;54.50;;;;;;5036777;28;20040;-70
2022/02/13 12:16:30;;;;;;;8.80;5.60;;;20.80;55.40;;;;;;5036724;28;20040;-70
2022/02/13 12:19:37;;;;;;;8.73;4.70;;;18.60;59.20;;;;;;5036380;28;20056;-69
2022/02/13 12:26:04;;;;;;;11.60;4.10;;;20.40;56.60;;;;;;5036757;28;20068;-69
2022/02/13 12:32:53;;;;;;;4.95;3.45;;;20.40;59.20;;;;;;5036688;28;20048;-69
2022/02/13 12:35:59;;;;;;;7.75;3.58;;;20.60;59.20;;;;;;5036562;28;20048;-69
2022/02/13 12:39:07;;;;;;;7.25;4.25;;;21.10;57.70;;;;;;5036575;28;20515;-69
2022/02/13 12:45:58;;;;;;;6.05;3.30;;;16.70;65.90;;;;;;5035970;28;20052;-69
2022/02/13 12:49:21;;;;;;;6.38;3.85;;;16.40;66.00;;;;;;5036660;28;20048;-69
2022/02/13 12:52:30;;;;;;;8.40;3.90;;;17.60;64.90;;;;;;5036033;28;20044;-69
2022/02/13 12:55:36;;;;;;;4.88;2.97;;;15.80;67.70;;;;;;5036325;28;20594;-69
2022/02/13 12:59:00;;;;;;;8.82;3.42;;;16.80;68.00;;;;;;5036072;28;20040;-70
2022/02/13 13:05:47;;;;;;;6.93;3.10;;;17.20;64.80;;;;;;5036333;28;20044;-69
2022/02/13 13:08:51;;;;;;;6.00;3.65;;;16.40;66.70;;;;;;5036101;28;20048;-70
2022/02/13 13:11:55;;;;;;;7.00;3.38;;;16.60;67.50;;;;;;5035723;28;20396;-70
2022/02/13 13:14:59;;;;;;;5.55;3.00;;;16.40;68.80;;;;;;5035884;28;20052;-68
2022/02/13 13:18:04;;;;;;;5.50;3.58;;;20.10;63.90;;;;;;5035556;28;20388;-68
2022/02/13 13:21:34;;;;;;;6.22;3.40;;;19.90;61.80;;;;;;5035980;28;20052;-67
2022/02/13 13:24:43;;;;;;;10.23;3.40;;;22.10;60.00;;;;;;5032283;28;20052;-69
2022/02/13 13:28:10;;;;;;;8.18;3.72;;;19.80;61.40;;;;;;5033200;28;20040;-70
2022/02/13 13:31:14;;;;;;;5.88;3.47;;;18.40;65.70;;;;;;5031884;28;20396;-70
2022/02/13 13:34:19;;;;;;;7.00;3.50;;;17.30;67.90;;;;;;5032888;28;20120;-70
2022/02/13 13:37:33;;;;;;;6.05;3.40;;;16.10;69.00;;;;;;5032852;28;20044;-70
2022/02/13 13:40:41;;;;;;;8.52;4.07;;;15.60;70.30;;;;;;5033079;28;20056;-69
2022/02/13 13:43:45;;;;;;;11.80;4.32;;;14.50;73.60;;;;;;5032654;28;20067;-70
2022/02/13 13:46:49;;;;;;;15.77;9.63;;;14.00;75.20;;;;;;5032806;28;20424;-69
2022/02/13 13:49:53;;;;;;;7.18;3.58;;;13.40;76.10;;;;;;5032731;28;20049;-70
2022/02/13 13:52:58;;;;;;;7.72;4.07;;;13.00;78.70;;;;;;5032569;28;20041;-70
2022/02/13 13:56:20;;;;;;;6.78;3.67;;;13.10;78.80;;;;;;5032466;28;20056;-70
2022/02/13 13:59:44;;;;;;;13.32;5.65;;;12.50;80.50;;;;;;5031956;28;20507;-70
2022/02/13 14:02:58;;;;;;;14.35;7.22;;;12.90;81.20;;;;;;5032445;28;20092;-70
2022/02/13 14:06:02;;;;;;;7.07;4.00;;;12.80;81.70;;;;;;5032138;28;20515;-69
2022/02/13 14:09:06;;;;;;;7.10;3.95;;;12.40;82.00;;;;;;5031903;28;20048;-70
2022/02/13 14:12:12;;;;;;;6.75;3.60;;;12.40;83.30;;;;;;5031823;28;20033;-69
2022/02/13 14:15:17;;;;;;;7.88;4.07;;;12.90;82.80;;;;;;5031381;28;20307;-70
2022/02/13 14:18:21;;;;;;;7.45;3.80;;;12.50;83.70;;;;;;5031188;28;20404;-70
2022/02/13 14:21:26;;;;;;;7.32;3.53;;;13.40;82.80;;;;;;5032908;28;20044;-67
2022/02/13 14:24:30;;;;;;;7.80;4.07;;;15.20;78.00;;;;;;5031505;28;20048;-70
2022/02/13 14:27:35;;;;;;;6.78;3.58;;;15.40;76.60;;;;;;5031524;28;20060;-69
2022/02/13 14:30:38;;;;;;;6.72;3.80;;;14.90;78.10;;;;;;5031187;28;20056;-70
2022/02/13 14:34:01;;;;;;;13.32;6.40;;;14.20;80.30;;;;;;5031677;28;20044;-70
2022/02/13 14:40:31;;;;;;;7.78;4.65;;;13.60;83.70;;;;;;5031780;28;20052;-70
2022/02/13 14:43:35;;;;;;;12.93;6.30;;;13.10;83.40;;;;;;5031764;28;20056;-70
2022/02/13 14:46:39;;;;;;;28.48;12.23;;;12.80;85.50;;;;;;5032233;28;20049;-70
2022/02/13 14:49:44;;;;;;;11.27;4.88;;;12.70;86.70;;;;;;5031579;28;20049;-69
2022/02/13 14:52:48;;;;;;;7.05;4.13;;;12.80;86.00;;;;;;5031927;28;20350;-69
2022/02/13 14:55:53;;;;;;;28.25;10.15;;;12.10;88.50;;;;;;5031401;28;20044;-70
2022/02/13 14:58:57;;;;;;;12.13;5.07;;;11.80;90.30;;;;;;5030805;28;20495;-69
2022/02/13 15:02:02;;;;;;;11.20;5.68;;;11.70;90.90;;;;;;5031394;28;20052;-69
2022/02/13 15:05:06;;;;;;;7.90;4.13;;;11.60;91.30;;;;;;5031326;28;20052;-69
2022/02/13 15:08:10;;;;;;;11.80;5.00;;;11.70;91.40;;;;;;5030410;28;20396;-69
2022/02/13 15:11:15;;;;;;;10.68;5.40;;;11.50;92.70;;;;;;5032433;28;20040;-69
2022/02/13 15:14:19;;;;;;;10.00;4.65;;;11.60;92.60;;;;;;5031348;28;20056;-70
2022/02/13 15:17:23;;;;;;;22.67;10.25;;;11.30;93.90;;;;;;5031204;28;20128;-70
2022/02/13 15:20:30;;;;;;;11.10;6.40;;;11.40;93.60;;;;;;5030908;28;20044;-69
2022/02/13 15:23:34;;;;;;;13.50;7.00;;;11.50;94.30;;;;;;5030793;28;20052;-69
2022/02/13 15:26:57;;;;;;;10.38;5.28;;;11.30;95.10;;;;;;5031041;28;20060;-69
2022/02/13 15:30:02;;;;;;;20.48;8.50;;;11.10;95.60;;;;;;5029830;28;20040;-69
2022/02/13 15:33:07;;;;;;;16.02;6.82;;;11.10;96.90;;;;;;5030720;28;20052;-69
2022/02/13 15:36:11;;;;;;;13.95;6.70;;;10.80;97.70;;;;;;5030681;28;20076;-69
2022/02/13 15:39:15;;;;;;;12.52;6.53;;;10.70;98.60;;;;;;5030376;28;20124;-69
2022/02/13 15:42:39;;;;;;;14.90;7.30;;;10.50;99.90;;;;;;5030504;28;20527;-70
2022/02/13 15:46:21;;;;;;;12.32;6.88;;;10.40;99.90;;;;;;5029653;28;20510;-69
2022/02/13 15:49:26;;;;;;;14.85;8.93;;;10.30;99.90;;;;;;5030461;28;20041;-69
2022/02/13 15:52:31;;;;;;;12.18;7.22;;;10.30;99.90;;;;;;5030120;28;20057;-70
2022/02/13 15:58:59;;;;;;;16.85;9.85;;;10.20;99.90;;;;;;5030038;28;20052;-69
2022/02/13 16:02:04;;;;;;;15.60;7.72;;;10.00;99.90;;;;;;5030328;28;20037;-70
2022/02/13 16:05:08;;;;;;;12.77;7.38;;;10.00;99.90;;;;;;5029168;28;20534;-69
2022/02/13 16:08:13;;;;;;;10.45;5.68;;;10.00;99.90;;;;;;5029348;28;20029;-69
2022/02/13 16:11:18;;;;;;;11.82;6.18;;;10.00;99.90;;;;;;5029569;28;20048;-69
2022/02/13 16:14:22;;;;;;;9.63;5.75;;;10.00;99.90;;;;;;5029127;28;20401;-69
2022/02/13 16:17:26;;;;;;;11.85;7.50;;;10.00;99.90;;;;;;5029653;28;20045;-69
2022/02/13 16:20:48;;;;;;;12.40;6.65;;;9.70;99.90;;;;;;5029478;28;20045;-69
2022/02/13 16:24:02;;;;;;;12.85;6.95;;;9.70;99.90;;;;;;5029664;28;20041;-70
2022/02/13 16:27:08;;;;;;;15.93;9.93;;;9.70;99.90;;;;;;5030320;28;20393;-70
2022/02/13 16:30:12;;;;;;;15.55;8.82;;;9.70;99.90;;;;;;5028991;28;20045;-69
2022/02/13 16:33:16;;;;;;;13.18;8.23;;;9.60;99.90;;;;;;5030110;28;20048;-69
2022/02/13 16:36:21;;;;;;;14.70;7.15;;;9.50;99.90;;;;;;5029929;28;20041;-69
2022/02/13 16:39:26;;;;;;;20.17;7.32;;;9.50;99.90;;;;;;5029817;28;20045;-70
2022/02/13 16:42:31;;;;;;;14.48;6.60;;;9.50;99.90;;;;;;5030190;28;20048;-69
2022/02/13 16:45:35;;;;;;;12.23;6.68;;;9.30;99.90;;;;;;5029580;28;20044;-69
2022/02/13 16:48:39;;;;;;;11.77;6.22;;;9.20;99.90;;;;;;5029573;28;20056;-69
2022/02/13 16:52:01;;;;;;;14.48;7.47;;;9.20;99.90;;;;;;5030109;28;20045;-69
2022/02/13 16:55:06;;;;;;;14.63;7.30;;;9.20;99.90;;;;;;5029782;28;20052;-69
2022/02/13 16:58:10;;;;;;;13.73;7.78;;;9.30;99.90;;;;;;5031858;28;20532;-69
2022/02/13 17:01:14;;;;;;;16.33;10.20;;;9.10;99.90;;;;;;5034271;28;20048;-69
2022/02/13 17:04:19;;;;;;;16.42;9.95;;;9.00;99.90;;;;;;5033406;28;20495;-69
2022/02/13 17:07:23;;;;;;;10.88;7.70;;;9.10;99.90;;;;;;5033807;28;20052;-69
2022/02/13 17:10:27;;;;;;;11.50;7.28;;;9.00;99.90;;;;;;5033628;28;20045;-69
2022/02/13 17:13:32;;;;;;;14.45;7.82;;;9.00;99.90;;;;;;5033488;28;20044;-69
2022/02/13 17:16:36;;;;;;;18.85;10.82;;;8.90;99.90;;;;;;5019350;28;20040;-69
2022/02/13 17:19:59;;;;;;;17.33;10.07;;;8.80;99.90;;;;;;5032656;28;20060;-68
2022/02/13 17:23:03;;;;;;;21.92;13.52;;;8.70;99.90;;;;;;5032865;28;20060;-69
2022/02/13 17:26:07;;;;;;;21.98;15.35;;;8.70;99.90;;;;;;5032823;28;20535;-68